sensor_id;sensor_type;location;lat;lon;timestamp;temperature;humidity
3942;DHT22;1985;48.592;8.850;2023-05-07T00:02:21;16.10;98.90
3942;DHT22;1985;48.592;8.850;2023-05-07T00:04:46;16.10;98.90
3942;DHT22;1985;48.592;8.850;2023-05-07T00:07:12;16.00;99.00
3942;DHT22;1985;48.592;8.850;2023-05-07T00:09:38;16.00;99.10
3942;DHT22;1985;48.592;8.850;2023-05-07T00:12:03;16.00;99.40
3942;DHT22;1985;48.592;8.850;2023-05-07T00:14:29;16.10;99.30
3942;DHT22;1985;48.592;8.850;2023-05-07T00:16:55;16.10;99.20
3942;DHT22;1985;48.592;8.850;2023-05-07T00:19:20;16.00;99.30
3942;DHT22;1985;48.592;8.850;2023-05-07T00:21:46;16.00;99.40
3942;DHT22;1985;48.592;8.850;2023-05-07T00:24:12;16.00;99.30
3942;DHT22;1985;48.592;8.850;2023-05-07T00:26:37;16.00;99.70
3942;DHT22;1985;48.592;8.850;2023-05-07T00:29:03;16.00;99.30
3942;DHT22;1985;48.592;8.850;2023-05-07T00:31:29;15.90;99.90
3942;DHT22;1985;48.592;8.850;2023-05-07T00:33:54;15.80;99.90
3942;DHT22;1985;48.592;8.850;2023-05-07T00:36:20;15.90;99.90
3942;DHT22;1985;48.592;8.850;2023-05-07T00:38:45;15.90;99.90
3942;DHT22;1985;48.592;8.850;2023-05-07T00:41:11;15.90;99.90
3942;DHT22;1985;48.592;8.850;2023-05-07T00:43:36;15.90;99.90
3942;DHT22;1985;48.592;8.850;2023-05-07T00:46:03;15.90;99.90
3942;DHT22;1985;48.592;8.850;2023-05-07T00:48:28;15.90;99.90
3942;DHT22;1985;48.592;8.850;2023-05-07T00:50:54;15.90;99.90
3942;DHT22;1985;48.592;8.850;2023-05-07T00:53:20;15.90;99.90
3942;DHT22;1985;48.592;8.850;2023-05-07T00:55:46;15.90;99.90
3942;DHT22;1985;48.592;8.850;2023-05-07T00:58:12;15.90;99.90
3942;DHT22;1985;48.592;8.850;2023-05-07T01:00:38;15.90;99.90
3942;DHT22;1985;48.592;8.850;2023-05-07T01:03:03;15.90;99.90
3942;DHT22;1985;48.592;8.850;2023-05-07T01:05:30;15.90;99.90
3942;DHT22;1985;48.592;8.850;2023-05-07T01:07:57;15.90;99.90
3942;DHT22;1985;48.592;8.850;2023-05-07T01:10:23;15.80;99.90
3942;DHT22;1985;48.592;8.850;2023-05-07T01:12:50;15.80;99.90
3942;DHT22;1985;48.592;8.850;2023-05-07T01:15:16;15.80;99.90
3942;DHT22;1985;48.592;8.850;2023-05-07T01:17:43;15.80;99.90
3942;DHT22;1985;48.592;8.850;2023-05-07T01:20:09;15.80;99.90
3942;DHT22;1985;48.592;8.850;2023-05-07T01:22:37;15.70;99.90
3942;DHT22;1985;48.592;8.850;2023-05-07T01:25:04;15.70;99.90
3942;DHT22;1985;48.592;8.850;2023-05-07T01:27:30;15.70;99.90
3942;DHT22;1985;48.592;8.850;2023-05-07T01:29:55;15.70;99.90
3942;DHT22;1985;48.592;8.850;2023-05-07T01:32:29;15.70;99.90
3942;DHT22;1985;48.592;8.850;2023-05-07T01:34:57;15.70;99.90
3942;DHT22;1985;48.592;8.850;2023-05-07T01:37:24;15.70;99.90
3942;DHT22;1985;48.592;8.850;2023-05-07T01:39:51;15.70;99.90
3942;DHT22;1985;48.592;8.850;2023-05-07T01:42:17;15.70;99.90
3942;DHT22;1985;48.592;8.850;2023-05-07T01:44:43;15.70;99.90
3942;DHT22;1985;48.592;8.850;2023-05-07T01:47:09;15.60;99.90
3942;DHT22;1985;48.592;8.850;2023-05-07T01:49:34;15.60;99.90
3942;DHT22;1985;48.592;8.850;2023-05-07T01:52:00;15.60;99.90
3942;DHT22;1985;48.592;8.850;2023-05-07T01:54:27;15.60;99.90
3942;DHT22;1985;48.592;8.850;2023-05-07T01:56:59;15.50;99.90
3942;DHT22;1985;48.592;8.850;2023-05-07T01:59:25;15.50;99.90
3942;DHT22;1985;48.592;8.850;2023-05-07T02:01:50;15.50;99.90
3942;DHT22;1985;48.592;8.850;2023-05-07T02:04:17;15.50;99.90
3942;DHT22;1985;48.592;8.850;2023-05-07T02:06:42;15.40;99.90
3942;DHT22;1985;48.592;8.850;2023-05-07T02:09:08;15.40;99.90
3942;DHT22;1985;48.592;8.850;2023-05-07T02:11:36;15.40;99.90
3942;DHT22;1985;48.592;8.850;2023-05-07T02:14:02;15.40;99.90
3942;DHT22;1985;48.592;8.850;2023-05-07T02:16:27;15.30;99.90
3942;DHT22;1985;48.592;8.850;2023-05-07T02:18:53;15.30;99.90
3942;DHT22;1985;48.592;8.850;2023-05-07T02:21:19;15.30;99.90
3942;DHT22;1985;48.592;8.850;2023-05-07T02:23:44;15.30;99.90
3942;DHT22;1985;48.592;8.850;2023-05-07T02:26:10;15.30;99.90
3942;DHT22;1985;48.592;8.850;2023-05-07T02:28:36;15.30;99.90
3942;DHT22;1985;48.592;8.850;2023-05-07T02:31:05;15.30;99.90
3942;DHT22;1985;48.592;8.850;2023-05-07T02:33:31;15.30;99.90
3942;DHT22;1985;48.592;8.850;2023-05-07T02:35:56;15.30;99.90
3942;DHT22;1985;48.592;8.850;2023-05-07T02:38:23;15.20;99.90
3942;DHT22;1985;48.592;8.850;2023-05-07T02:40:48;15.30;99.90
3942;DHT22;1985;48.592;8.850;2023-05-07T02:43:14;15.30;99.90
3942;DHT22;1985;48.592;8.850;2023-05-07T02:45:40;15.30;99.90
3942;DHT22;1985;48.592;8.850;2023-05-07T02:48:05;15.30;99.90
3942;DHT22;1985;48.592;8.850;2023-05-07T02:50:31;15.20;99.90
3942;DHT22;1985;48.592;8.850;2023-05-07T02:52:58;15.20;99.90
3942;DHT22;1985;48.592;8.850;2023-05-07T02:55:23;15.20;99.90
3942;DHT22;1985;48.592;8.850;2023-05-07T02:57:49;15.10;99.90
3942;DHT22;1985;48.592;8.850;2023-05-07T03:00:16;15.00;99.90
3942;DHT22;1985;48.592;8.850;2023-05-07T03:02:43;14.90;99.90
3942;DHT22;1985;48.592;8.850;2023-05-07T03:05:09;14.90;99.90
3942;DHT22;1985;48.592;8.850;2023-05-07T03:07:35;14.90;99.90
3942;DHT22;1985;48.592;8.850;2023-05-07T03:10:01;14.90;99.90
3942;DHT22;1985;48.592;8.850;2023-05-07T03:12:27;14.80;99.90
3942;DHT22;1985;48.592;8.850;2023-05-07T03:14:53;14.80;99.90
3942;DHT22;1985;48.592;8.850;2023-05-07T03:17:18;14.80;99.90
3942;DHT22;1985;48.592;8.850;2023-05-07T03:19:44;14.80;99.90
3942;DHT22;1985;48.592;8.850;2023-05-07T03:22:09;14.80;99.90
3942;DHT22;1985;48.592;8.850;2023-05-07T03:24:35;14.80;99.90
3942;DHT22;1985;48.592;8.850;2023-05-07T03:27:00;14.80;99.90
3942;DHT22;1985;48.592;8.850;2023-05-07T03:29:26;14.80;99.90
3942;DHT22;1985;48.592;8.850;2023-05-07T03:31:52;14.80;99.90
3942;DHT22;1985;48.592;8.850;2023-05-07T03:34:18;14.70;99.90
3942;DHT22;1985;48.592;8.850;2023-05-07T03:36:50;14.70;99.90
3942;DHT22;1985;48.592;8.850;2023-05-07T03:39:16;14.70;99.90
3942;DHT22;1985;48.592;8.850;2023-05-07T03:41:42;14.70;99.90
3942;DHT22;1985;48.592;8.850;2023-05-07T03:44:08;14.60;99.90
3942;DHT22;1985;48.592;8.850;2023-05-07T03:46:33;14.60;99.90
3942;DHT22;1985;48.592;8.850;2023-05-07T03:48:59;14.60;99.90
3942;DHT22;1985;48.592;8.850;2023-05-07T03:51:25;14.60;99.90
3942;DHT22;1985;48.592;8.850;2023-05-07T03:53:51;14.60;99.90
3942;DHT22;1985;48.592;8.850;2023-05-07T03:56:19;14.60;99.90
3942;DHT22;1985;48.592;8.850;2023-05-07T03:58:47;14.50;99.90
3942;DHT22;1985;48.592;8.850;2023-05-07T04:01:12;14.50;99.90
3942;DHT22;1985;48.592;8.850;2023-05-07T04:03:38;14.50;99.90
3942;DHT22;1985;48.592;8.850;2023-05-07T04:06:04;14.50;99.90
3942;DHT22;1985;48.592;8.850;2023-05-07T04:08:29;14.40;99.90
3942;DHT22;1985;48.592;8.850;2023-05-07T04:10:58;14.30;99.90
3942;DHT22;1985;48.592;8.850;2023-05-07T04:13:25;14.30;99.90
3942;DHT22;1985;48.592;8.850;2023-05-07T04:15:51;14.20;99.90
3942;DHT22;1985;48.592;8.850;2023-05-07T04:18:17;14.30;99.90
3942;DHT22;1985;48.592;8.850;2023-05-07T04:20:43;14.30;99.90
3942;DHT22;1985;48.592;8.850;2023-05-07T04:23:09;14.30;99.90
3942;DHT22;1985;48.592;8.850;2023-05-07T04:25:34;14.30;99.90
3942;DHT22;1985;48.592;8.850;2023-05-07T04:28:00;14.30;99.90
3942;DHT22;1985;48.592;8.850;2023-05-07T04:30:26;14.30;99.90
3942;DHT22;1985;48.592;8.850;2023-05-07T04:32:52;14.30;99.90
3942;DHT22;1985;48.592;8.850;2023-05-07T04:35:18;14.20;99.90
3942;DHT22;1985;48.592;8.850;2023-05-07T04:37:44;14.10;99.90
3942;DHT22;1985;48.592;8.850;2023-05-07T04:40:10;14.10;99.90
3942;DHT22;1985;48.592;8.850;2023-05-07T04:42:35;14.20;99.90
3942;DHT22;1985;48.592;8.850;2023-05-07T04:45:02;14.20;99.90
3942;DHT22;1985;48.592;8.850;2023-05-07T04:47:27;14.30;99.90
3942;DHT22;1985;48.592;8.850;2023-05-07T04:49:53;14.30;99.90
3942;DHT22;1985;48.592;8.850;2023-05-07T04:52:19;14.30;99.90
3942;DHT22;1985;48.592;8.850;2023-05-07T04:54:44;14.30;99.90
3942;DHT22;1985;48.592;8.850;2023-05-07T04:57:10;14.30;99.90
3942;DHT22;1985;48.592;8.850;2023-05-07T04:59:35;14.30;99.90
3942;DHT22;1985;48.592;8.850;2023-05-07T05:02:01;14.30;99.90
3942;DHT22;1985;48.592;8.850;2023-05-07T05:04:27;14.50;99.90
3942;DHT22;1985;48.592;8.850;2023-05-07T05:06:52;14.50;99.90
3942;DHT22;1985;48.592;8.850;2023-05-07T05:09:18;14.60;99.90
3942;DHT22;1985;48.592;8.850;2023-05-07T05:11:44;14.70;99.90
3942;DHT22;1985;48.592;8.850;2023-05-07T05:14:09;14.70;99.90
3942;DHT22;1985;48.592;8.850;2023-05-07T05:16:35;14.70;99.90
3942;DHT22;1985;48.592;8.850;2023-05-07T05:19:01;14.50;99.90
3942;DHT22;1985;48.592;8.850;2023-05-07T05:21:27;14.40;99.90
3942;DHT22;1985;48.592;8.850;2023-05-07T05:23:53;14.20;99.90
3942;DHT22;1985;48.592;8.850;2023-05-07T05:26:19;14.30;99.90
3942;DHT22;1985;48.592;8.850;2023-05-07T05:28:46;14.40;99.90
3942;DHT22;1985;48.592;8.850;2023-05-07T05:31:12;14.60;99.90
3942;DHT22;1985;48.592;8.850;2023-05-07T05:33:37;14.70;99.90
3942;DHT22;1985;48.592;8.850;2023-05-07T05:36:03;14.70;99.90
3942;DHT22;1985;48.592;8.850;2023-05-07T05:38:29;14.60;99.90
3942;DHT22;1985;48.592;8.850;2023-05-07T05:40:55;14.60;99.90
3942;DHT22;1985;48.592;8.850;2023-05-07T05:43:20;14.40;99.90
3942;DHT22;1985;48.592;8.850;2023-05-07T05:45:46;14.40;99.90
3942;DHT22;1985;48.592;8.850;2023-05-07T05:48:12;14.50;99.90
3942;DHT22;1985;48.592;8.850;2023-05-07T05:50:37;14.60;99.90
3942;DHT22;1985;48.592;8.850;2023-05-07T05:53:03;14.70;99.90
3942;DHT22;1985;48.592;8.850;2023-05-07T05:55:29;14.90;99.90
3942;DHT22;1985;48.592;8.850;2023-05-07T05:57:55;15.10;99.90
3942;DHT22;1985;48.592;8.850;2023-05-07T06:00:21;15.20;99.90
3942;DHT22;1985;48.592;8.850;2023-05-07T06:02:48;15.10;99.90
3942;DHT22;1985;48.592;8.850;2023-05-07T06:05:13;15.10;99.90
3942;DHT22;1985;48.592;8.850;2023-05-07T06:07:39;15.30;99.90
3942;DHT22;1985;48.592;8.850;2023-05-07T06:10:05;15.30;99.90
3942;DHT22;1985;48.592;8.850;2023-05-07T06:12:31;15.30;99.90
3942;DHT22;1985;48.592;8.850;2023-05-07T06:14:57;15.10;99.90
3942;DHT22;1985;48.592;8.850;2023-05-07T06:17:22;15.10;99.90
3942;DHT22;1985;48.592;8.850;2023-05-07T06:19:48;15.10;99.90
3942;DHT22;1985;48.592;8.850;2023-05-07T06:22:14;15.10;99.90
3942;DHT22;1985;48.592;8.850;2023-05-07T06:24:39;15.10;99.90
3942;DHT22;1985;48.592;8.850;2023-05-07T06:27:05;15.00;99.90
3942;DHT22;1985;48.592;8.850;2023-05-07T06:29:30;15.20;99.90
3942;DHT22;1985;48.592;8.850;2023-05-07T06:32:09;15.20;99.90
3942;DHT22;1985;48.592;8.850;2023-05-07T06:34:35;15.30;99.90
3942;DHT22;1985;48.592;8.850;2023-05-07T06:37:01;15.40;99.90
3942;DHT22;1985;48.592;8.850;2023-05-07T06:39:26;15.40;99.90
3942;DHT22;1985;48.592;8.850;2023-05-07T06:41:52;15.50;99.90
3942;DHT22;1985;48.592;8.850;2023-05-07T06:44:18;15.40;99.90
3942;DHT22;1985;48.592;8.850;2023-05-07T06:46:43;15.40;99.90
3942;DHT22;1985;48.592;8.850;2023-05-07T06:49:12;15.40;99.90
3942;DHT22;1985;48.592;8.850;2023-05-07T06:51:38;15.50;99.90
3942;DHT22;1985;48.592;8.850;2023-05-07T06:54:04;15.60;99.90
3942;DHT22;1985;48.592;8.850;2023-05-07T06:56:30;15.70;99.90
3942;DHT22;1985;48.592;8.850;2023-05-07T06:58:56;15.80;99.90
3942;DHT22;1985;48.592;8.850;2023-05-07T07:01:21;15.90;99.90
3942;DHT22;1985;48.592;8.850;2023-05-07T07:03:47;16.00;99.90
3942;DHT22;1985;48.592;8.850;2023-05-07T07:06:13;16.30;99.90
3942;DHT22;1985;48.592;8.850;2023-05-07T07:08:38;16.60;99.90
3942;DHT22;1985;48.592;8.850;2023-05-07T07:11:05;16.80;99.90
3942;DHT22;1985;48.592;8.850;2023-05-07T07:13:30;16.90;99.90
3942;DHT22;1985;48.592;8.850;2023-05-07T07:15:56;17.10;99.90
3942;DHT22;1985;48.592;8.850;2023-05-07T07:18:22;17.20;99.90
3942;DHT22;1985;48.592;8.850;2023-05-07T07:20:47;17.20;99.90
3942;DHT22;1985;48.592;8.850;2023-05-07T07:23:13;17.40;99.90
3942;DHT22;1985;48.592;8.850;2023-05-07T07:25:39;17.50;99.90
3942;DHT22;1985;48.592;8.850;2023-05-07T07:28:05;17.70;99.90
3942;DHT22;1985;48.592;8.850;2023-05-07T07:30:31;17.80;99.90
3942;DHT22;1985;48.592;8.850;2023-05-07T07:32:57;17.90;99.90
3942;DHT22;1985;48.592;8.850;2023-05-07T07:35:28;18.00;99.90
3942;DHT22;1985;48.592;8.850;2023-05-07T07:37:53;18.10;99.90
3942;DHT22;1985;48.592;8.850;2023-05-07T07:40:19;18.10;99.90
3942;DHT22;1985;48.592;8.850;2023-05-07T07:42:45;18.00;99.90
3942;DHT22;1985;48.592;8.850;2023-05-07T07:45:11;17.80;99.90
3942;DHT22;1985;48.592;8.850;2023-05-07T07:47:36;17.90;99.90
3942;DHT22;1985;48.592;8.850;2023-05-07T07:50:02;17.90;99.90
3942;DHT22;1985;48.592;8.850;2023-05-07T07:52:28;18.00;99.90
3942;DHT22;1985;48.592;8.850;2023-05-07T07:54:53;17.90;99.90
3942;DHT22;1985;48.592;8.850;2023-05-07T07:57:19;18.10;99.90
3942;DHT22;1985;48.592;8.850;2023-05-07T07:59:44;18.30;99.90
3942;DHT22;1985;48.592;8.850;2023-05-07T08:02:10;18.50;99.90
3942;DHT22;1985;48.592;8.850;2023-05-07T08:04:36;18.70;99.90
3942;DHT22;1985;48.592;8.850;2023-05-07T08:07:03;18.80;99.90
3942;DHT22;1985;48.592;8.850;2023-05-07T08:09:28;19.00;99.90
3942;DHT22;1985;48.592;8.850;2023-05-07T08:11:54;18.80;99.90
3942;DHT22;1985;48.592;8.850;2023-05-07T08:14:19;18.70;99.90
3942;DHT22;1985;48.592;8.850;2023-05-07T08:16:45;18.80;99.90
3942;DHT22;1985;48.592;8.850;2023-05-07T08:19:11;18.70;99.90
3942;DHT22;1985;48.592;8.850;2023-05-07T08:21:39;18.70;99.90
3942;DHT22;1985;48.592;8.850;2023-05-07T08:24:05;18.80;99.90
3942;DHT22;1985;48.592;8.850;2023-05-07T08:26:31;18.70;99.90
3942;DHT22;1985;48.592;8.850;2023-05-07T08:28:56;18.70;99.90
3942;DHT22;1985;48.592;8.850;2023-05-07T08:31:22;18.80;99.90
3942;DHT22;1985;48.592;8.850;2023-05-07T08:33:47;19.10;99.90
3942;DHT22;1985;48.592;8.850;2023-05-07T08:36:13;19.10;99.90
3942;DHT22;1985;48.592;8.850;2023-05-07T08:38:39;19.10;99.90
3942;DHT22;1985;48.592;8.850;2023-05-07T08:41:06;19.30;99.90
3942;DHT22;1985;48.592;8.850;2023-05-07T08:43:33;19.40;99.90
3942;DHT22;1985;48.592;8.850;2023-05-07T08:46:01;19.60;99.90
3942;DHT22;1985;48.592;8.850;2023-05-07T08:48:29;19.70;99.40
3942;DHT22;1985;48.592;8.850;2023-05-07T08:50:55;19.40;99.40
3942;DHT22;1985;48.592;8.850;2023-05-07T08:53:21;19.30;99.90
3942;DHT22;1985;48.592;8.850;2023-05-07T08:55:47;19.30;99.90
3942;DHT22;1985;48.592;8.850;2023-05-07T08:58:13;19.50;99.90
3942;DHT22;1985;48.592;8.850;2023-05-07T09:00:40;19.60;99.90
3942;DHT22;1985;48.592;8.850;2023-05-07T09:03:06;19.80;99.90
3942;DHT22;1985;48.592;8.850;2023-05-07T09:05:31;19.90;99.90
3942;DHT22;1985;48.592;8.850;2023-05-07T09:08:02;20.00;99.90
3942;DHT22;1985;48.592;8.850;2023-05-07T09:10:29;20.20;99.90
3942;DHT22;1985;48.592;8.850;2023-05-07T09:12:55;20.20;99.20
3942;DHT22;1985;48.592;8.850;2023-05-07T09:15:20;19.90;97.90
3942;DHT22;1985;48.592;8.850;2023-05-07T09:17:46;19.80;97.70
3942;DHT22;1985;48.592;8.850;2023-05-07T09:20:12;20.00;99.30
3942;DHT22;1985;48.592;8.850;2023-05-07T09:22:38;20.30;98.90
3942;DHT22;1985;48.592;8.850;2023-05-07T09:25:07;20.40;97.10
3942;DHT22;1985;48.592;8.850;2023-05-07T09:27:34;20.40;96.90
3942;DHT22;1985;48.592;8.850;2023-05-07T09:30:03;20.60;98.20
3942;DHT22;1985;48.592;8.850;2023-05-07T09:32:29;20.70;97.20
3942;DHT22;1985;48.592;8.850;2023-05-07T09:34:56;20.90;99.10
3942;DHT22;1985;48.592;8.850;2023-05-07T09:37:22;21.00;97.20
3942;DHT22;1985;48.592;8.850;2023-05-07T09:39:49;20.90;98.50
3942;DHT22;1985;48.592;8.850;2023-05-07T09:42:15;21.20;98.10
3942;DHT22;1985;48.592;8.850;2023-05-07T09:44:41;21.30;97.10
3942;DHT22;1985;48.592;8.850;2023-05-07T09:47:08;21.40;96.50
3942;DHT22;1985;48.592;8.850;2023-05-07T09:49:37;21.50;96.00
3942;DHT22;1985;48.592;8.850;2023-05-07T09:52:04;21.70;96.30
3942;DHT22;1985;48.592;8.850;2023-05-07T09:54:32;21.90;95.60
3942;DHT22;1985;48.592;8.850;2023-05-07T09:57:01;22.20;96.40
3942;DHT22;1985;48.592;8.850;2023-05-07T09:59:30;22.50;95.90
3942;DHT22;1985;48.592;8.850;2023-05-07T10:01:57;22.90;96.50
3942;DHT22;1985;48.592;8.850;2023-05-07T10:04:26;23.20;94.90
3942;DHT22;1985;48.592;8.850;2023-05-07T10:06:52;23.50;94.20
3942;DHT22;1985;48.592;8.850;2023-05-07T10:09:19;23.70;93.30
3942;DHT22;1985;48.592;8.850;2023-05-07T10:11:45;23.90;91.40
3942;DHT22;1985;48.592;8.850;2023-05-07T10:14:12;24.10;92.30
3942;DHT22;1985;48.592;8.850;2023-05-07T10:16:38;24.50;91.20
3942;DHT22;1985;48.592;8.850;2023-05-07T10:19:06;24.80;88.60
3942;DHT22;1985;48.592;8.850;2023-05-07T10:21:40;25.10;90.30
3942;DHT22;1985;48.592;8.850;2023-05-07T10:24:22;25.10;86.10
3942;DHT22;1985;48.592;8.850;2023-05-07T10:26:52;24.70;83.70
3942;DHT22;1985;48.592;8.850;2023-05-07T10:34:38;25.20;84.20
3942;DHT22;1985;48.592;8.850;2023-05-07T10:37:06;25.70;84.70
3942;DHT22;1985;48.592;8.850;2023-05-07T10:39:32;26.30;82.40
3942;DHT22;1985;48.592;8.850;2023-05-07T10:42:10;26.60;79.20
3942;DHT22;1985;48.592;8.850;2023-05-07T10:44:36;26.80;76.40
3942;DHT22;1985;48.592;8.850;2023-05-07T10:47:13;27.10;77.00
3942;DHT22;1985;48.592;8.850;2023-05-07T10:52:24;27.10;74.90
3942;DHT22;1985;48.592;8.850;2023-05-07T10:57:50;27.30;69.70
3942;DHT22;1985;48.592;8.850;2023-05-07T11:05:26;26.90;67.70
3942;DHT22;1985;48.592;8.850;2023-05-07T11:07:56;27.20;71.40
3942;DHT22;1985;48.592;8.850;2023-05-07T11:10:22;27.10;69.00
3942;DHT22;1985;48.592;8.850;2023-05-07T11:12:52;26.80;68.50
3942;DHT22;1985;48.592;8.850;2023-05-07T11:15:37;26.10;65.90
3942;DHT22;1985;48.592;8.850;2023-05-07T11:18:03;25.20;68.20
3942;DHT22;1985;48.592;8.850;2023-05-07T11:26:06;23.80;71.50
3942;DHT22;1985;48.592;8.850;2023-05-07T11:28:40;23.30;71.40
3942;DHT22;1985;48.592;8.850;2023-05-07T11:31:07;23.20;73.50
3942;DHT22;1985;48.592;8.850;2023-05-07T11:33:33;22.80;75.40
3942;DHT22;1985;48.592;8.850;2023-05-07T11:36:00;22.60;78.10
3942;DHT22;1985;48.592;8.850;2023-05-07T11:38:27;22.60;77.50
3942;DHT22;1985;48.592;8.850;2023-05-07T11:40:55;22.50;78.60
3942;DHT22;1985;48.592;8.850;2023-05-07T11:43:21;22.50;79.50
3942;DHT22;1985;48.592;8.850;2023-05-07T11:45:48;22.60;78.50
3942;DHT22;1985;48.592;8.850;2023-05-07T11:48:14;22.60;80.00
3942;DHT22;1985;48.592;8.850;2023-05-07T11:50:59;22.60;81.60
3942;DHT22;1985;48.592;8.850;2023-05-07T11:53:26;22.40;80.70
3942;DHT22;1985;48.592;8.850;2023-05-07T11:55:55;22.20;81.80
3942;DHT22;1985;48.592;8.850;2023-05-07T11:58:23;21.70;83.00
3942;DHT22;1985;48.592;8.850;2023-05-07T12:00:50;21.30;83.80
3942;DHT22;1985;48.592;8.850;2023-05-07T12:03:15;20.90;86.00
3942;DHT22;1985;48.592;8.850;2023-05-07T12:05:41;20.80;85.40
3942;DHT22;1985;48.592;8.850;2023-05-07T12:08:07;20.70;87.00
3942;DHT22;1985;48.592;8.850;2023-05-07T12:10:33;20.70;89.10
3942;DHT22;1985;48.592;8.850;2023-05-07T12:12:58;20.50;90.30
3942;DHT22;1985;48.592;8.850;2023-05-07T12:15:24;20.40;91.10
3942;DHT22;1985;48.592;8.850;2023-05-07T12:17:50;20.30;91.80
3942;DHT22;1985;48.592;8.850;2023-05-07T12:20:17;20.20;91.90
3942;DHT22;1985;48.592;8.850;2023-05-07T12:22:44;20.10;91.80
3942;DHT22;1985;48.592;8.850;2023-05-07T12:25:09;19.90;91.90
3942;DHT22;1985;48.592;8.850;2023-05-07T12:27:37;19.90;92.60
3942;DHT22;1985;48.592;8.850;2023-05-07T12:30:04;19.80;92.80
3942;DHT22;1985;48.592;8.850;2023-05-07T12:32:31;19.80;93.30
3942;DHT22;1985;48.592;8.850;2023-05-07T12:35:01;19.90;93.80
3942;DHT22;1985;48.592;8.850;2023-05-07T12:37:27;19.80;94.30
3942;DHT22;1985;48.592;8.850;2023-05-07T12:42:39;19.90;95.70
3942;DHT22;1985;48.592;8.850;2023-05-07T12:45:12;20.00;96.00
3942;DHT22;1985;48.592;8.850;2023-05-07T12:47:38;20.00;95.50
3942;DHT22;1985;48.592;8.850;2023-05-07T12:50:07;19.70;96.60
3942;DHT22;1985;48.592;8.850;2023-05-07T12:52:33;19.30;97.30
3942;DHT22;1985;48.592;8.850;2023-05-07T12:55:05;18.90;99.50
3942;DHT22;1985;48.592;8.850;2023-05-07T12:58:00;18.10;99.90
3942;DHT22;1985;48.592;8.850;2023-05-07T13:00:37;17.70;99.90
3942;DHT22;1985;48.592;8.850;2023-05-07T13:03:03;17.10;99.90
3942;DHT22;1985;48.592;8.850;2023-05-07T13:05:29;16.40;99.90
3942;DHT22;1985;48.592;8.850;2023-05-07T13:07:55;15.90;99.90
3942;DHT22;1985;48.592;8.850;2023-05-07T13:10:24;15.60;99.90
3942;DHT22;1985;48.592;8.850;2023-05-07T13:12:50;15.50;99.90
3942;DHT22;1985;48.592;8.850;2023-05-07T13:15:17;15.30;99.90
3942;DHT22;1985;48.592;8.850;2023-05-07T13:17:42;15.00;99.90
3942;DHT22;1985;48.592;8.850;2023-05-07T13:20:11;14.80;99.90
3942;DHT22;1985;48.592;8.850;2023-05-07T13:22:40;14.60;99.90
3942;DHT22;1985;48.592;8.850;2023-05-07T13:25:07;14.60;99.90
3942;DHT22;1985;48.592;8.850;2023-05-07T13:27:32;14.60;99.90
3942;DHT22;1985;48.592;8.850;2023-05-07T13:30:02;14.70;99.90
3942;DHT22;1985;48.592;8.850;2023-05-07T13:32:28;14.80;99.90
3942;DHT22;1985;48.592;8.850;2023-05-07T13:34:54;14.60;99.90
3942;DHT22;1985;48.592;8.850;2023-05-07T13:37:19;14.70;99.90
3942;DHT22;1985;48.592;8.850;2023-05-07T13:39:45;14.70;99.90
3942;DHT22;1985;48.592;8.850;2023-05-07T13:42:11;14.70;99.90
3942;DHT22;1985;48.592;8.850;2023-05-07T13:44:36;14.70;99.90
3942;DHT22;1985;48.592;8.850;2023-05-07T13:47:02;14.80;99.90
3942;DHT22;1985;48.592;8.850;2023-05-07T13:49:28;15.00;99.90
3942;DHT22;1985;48.592;8.850;2023-05-07T13:51:53;15.20;99.90
3942;DHT22;1985;48.592;8.850;2023-05-07T13:54:19;15.50;99.90
3942;DHT22;1985;48.592;8.850;2023-05-07T13:56:44;15.70;99.90
3942;DHT22;1985;48.592;8.850;2023-05-07T13:59:10;15.70;99.90
3942;DHT22;1985;48.592;8.850;2023-05-07T14:01:35;15.70;99.90
3942;DHT22;1985;48.592;8.850;2023-05-07T14:04:01;15.80;99.90
3942;DHT22;1985;48.592;8.850;2023-05-07T14:06:27;16.00;99.90
3942;DHT22;1985;48.592;8.850;2023-05-07T14:08:52;16.00;99.90
3942;DHT22;1985;48.592;8.850;2023-05-07T14:11:18;16.10;99.90
3942;DHT22;1985;48.592;8.850;2023-05-07T14:13:44;16.30;99.90
3942;DHT22;1985;48.592;8.850;2023-05-07T14:16:09;16.30;99.90
3942;DHT22;1985;48.592;8.850;2023-05-07T14:18:35;16.40;99.90
3942;DHT22;1985;48.592;8.850;2023-05-07T14:21:04;16.50;99.90
3942;DHT22;1985;48.592;8.850;2023-05-07T14:23:31;16.60;99.90
3942;DHT22;1985;48.592;8.850;2023-05-07T14:25:57;16.70;99.90
3942;DHT22;1985;48.592;8.850;2023-05-07T14:28:23;16.70;99.90
3942;DHT22;1985;48.592;8.850;2023-05-07T14:30:49;16.80;99.90
3942;DHT22;1985;48.592;8.850;2023-05-07T14:33:15;16.90;99.90
3942;DHT22;1985;48.592;8.850;2023-05-07T14:35:40;16.90;99.90
3942;DHT22;1985;48.592;8.850;2023-05-07T14:38:06;16.80;99.90
3942;DHT22;1985;48.592;8.850;2023-05-07T14:40:32;16.80;99.90
3942;DHT22;1985;48.592;8.850;2023-05-07T14:42:57;16.40;99.90
3942;DHT22;1985;48.592;8.850;2023-05-07T14:45:23;15.90;99.90
3942;DHT22;1985;48.592;8.850;2023-05-07T14:47:49;15.70;99.90
3942;DHT22;1985;48.592;8.850;2023-05-07T14:50:14;15.60;99.90
3942;DHT22;1985;48.592;8.850;2023-05-07T14:52:40;15.80;99.90
3942;DHT22;1985;48.592;8.850;2023-05-07T14:55:06;16.00;99.90
3942;DHT22;1985;48.592;8.850;2023-05-07T14:57:31;16.20;99.90
3942;DHT22;1985;48.592;8.850;2023-05-07T15:00:01;16.50;99.90
3942;DHT22;1985;48.592;8.850;2023-05-07T15:02:26;16.70;99.90
3942;DHT22;1985;48.592;8.850;2023-05-07T15:04:52;16.90;99.90
3942;DHT22;1985;48.592;8.850;2023-05-07T15:07:18;17.10;99.90
3942;DHT22;1985;48.592;8.850;2023-05-07T15:09:44;17.10;99.90
3942;DHT22;1985;48.592;8.850;2023-05-07T15:12:11;17.30;99.90
3942;DHT22;1985;48.592;8.850;2023-05-07T15:14:38;17.50;99.90
3942;DHT22;1985;48.592;8.850;2023-05-07T15:17:04;17.70;99.90
3942;DHT22;1985;48.592;8.850;2023-05-07T15:19:29;17.90;99.90
3942;DHT22;1985;48.592;8.850;2023-05-07T15:21:57;18.10;99.90
3942;DHT22;1985;48.592;8.850;2023-05-07T15:24:23;18.20;99.90
3942;DHT22;1985;48.592;8.850;2023-05-07T15:26:49;18.30;99.90
3942;DHT22;1985;48.592;8.850;2023-05-07T15:29:15;18.40;99.90
3942;DHT22;1985;48.592;8.850;2023-05-07T15:31:40;18.40;99.90
3942;DHT22;1985;48.592;8.850;2023-05-07T15:34:06;18.20;99.90
3942;DHT22;1985;48.592;8.850;2023-05-07T15:36:32;18.20;99.90
3942;DHT22;1985;48.592;8.850;2023-05-07T15:38:57;18.30;99.90
3942;DHT22;1985;48.592;8.850;2023-05-07T15:41:24;18.40;99.90
3942;DHT22;1985;48.592;8.850;2023-05-07T15:43:51;18.40;99.90
3942;DHT22;1985;48.592;8.850;2023-05-07T15:46:18;18.50;99.90
3942;DHT22;1985;48.592;8.850;2023-05-07T15:48:45;18.70;99.90
3942;DHT22;1985;48.592;8.850;2023-05-07T15:51:11;18.80;99.90
3942;DHT22;1985;48.592;8.850;2023-05-07T15:53:37;18.70;99.90
3942;DHT22;1985;48.592;8.850;2023-05-07T15:56:03;18.60;99.90
3942;DHT22;1985;48.592;8.850;2023-05-07T15:58:28;18.60;99.90
3942;DHT22;1985;48.592;8.850;2023-05-07T16:00:54;18.50;99.90
3942;DHT22;1985;48.592;8.850;2023-05-07T16:03:20;18.20;99.90
3942;DHT22;1985;48.592;8.850;2023-05-07T16:05:47;18.10;99.90
3942;DHT22;1985;48.592;8.850;2023-05-07T16:08:13;18.10;99.90
3942;DHT22;1985;48.592;8.850;2023-05-07T16:10:38;18.10;99.90
3942;DHT22;1985;48.592;8.850;2023-05-07T16:13:04;17.90;99.90
3942;DHT22;1985;48.592;8.850;2023-05-07T16:15:30;18.00;99.90
3942;DHT22;1985;48.592;8.850;2023-05-07T16:17:55;18.00;99.90
3942;DHT22;1985;48.592;8.850;2023-05-07T16:20:32;18.00;99.90
3942;DHT22;1985;48.592;8.850;2023-05-07T16:22:57;17.60;99.90